Time;durP1;ratioP1;P1;durP2;ratioP2;P2;SDS_P1;SDS_P2;PMS_P1;PMS_P2;Temp;Humidity;BMP_temperature;BMP_pressure;BME280_temperature;BME280_humidity;BME280_pressure;Samples;Min_cycle;Max_cycle;Signal;HPM_P1;HPM_P2
2023/01/27 00:00:56;;;;;;;13.93;6.65;;;4.40;99.90;;;;;;5090460;27;20486;-81
2023/01/27 00:03:22;;;;;;;11.95;7.15;;;5.60;99.90;;;;;;5089885;27;20050;-81
2023/01/27 00:05:48;;;;;;;16.55;7.35;;;4.40;99.90;;;;;;5091393;28;20115;-81
2023/01/27 00:08:15;;;;;;;12.15;6.88;;;4.40;99.90;;;;;;5106037;28;20406;-80
2023/01/27 00:10:41;;;;;;;14.23;8.05;;;4.80;99.90;;;;;;5108465;28;20071;-81
2023/01/27 00:13:26;;;;;;;14.73;8.15;;;4.40;99.90;;;;;;5089000;28;20494;-81
2023/01/27 00:15:53;;;;;;;12.80;7.07;;;4.40;99.90;;;;;;5090287;28;20082;-82
2023/01/27 00:18:18;;;;;;;14.38;7.38;;;4.30;99.90;;;;;;5107684;28;20050;-81
2023/01/27 00:26:16;;;;;;;14.15;7.07;;;4.30;99.90;;;;;;5108027;27;20078;-83
2023/01/27 00:28:43;;;;;;;10.80;6.43;;;4.30;99.90;;;;;;5113426;27;20043;-82
2023/01/27 00:34:00;;;;;;;11.45;5.88;;;4.30;99.90;;;;;;5120964;27;20077;-83
2023/01/27 00:36:28;;;;;;;9.77;5.53;;;3.90;99.90;;;;;;5105977;27;20060;-82
2023/01/27 00:38:54;;;;;;;11.25;6.93;;;5.50;99.90;;;;;;5117232;27;20043;-82
2023/01/27 00:41:21;;;;;;;7.82;4.85;;;4.20;99.90;;;;;;5103757;27;20086;-82
2023/01/27 00:43:52;;;;;;;12.50;5.65;;;4.20;99.90;;;;;;5115098;27;20456;-83
2023/01/27 00:46:20;;;;;;;8.38;5.00;;;4.20;99.90;;;;;;5094308;27;20414;-83
2023/01/27 00:48:46;;;;;;;8.68;5.22;;;4.20;99.90;;;;;;5095059;27;20486;-83
2023/01/27 00:51:12;;;;;;;6.85;4.72;;;5.00;99.90;;;;;;5093555;27;20170;-83
2023/01/27 00:53:38;;;;;;;8.82;4.63;;;4.20;99.90;;;;;;5111673;27;20050;-83
2023/01/27 00:56:05;;;;;;;8.15;4.70;;;4.20;99.90;;;;;;5109663;27;20043;-83
2023/01/27 00:58:31;;;;;;;10.50;4.72;;;4.20;99.90;;;;;;5111693;27;20466;-82
2023/01/27 01:01:00;;;;;;;11.15;4.68;;;4.20;99.90;;;;;;5110759;27;20072;-83
2023/01/27 01:03:30;;;;;;;10.40;4.40;;;4.20;99.90;;;;;;5110257;27;20095;-83
2023/01/27 01:06:00;;;;;;;9.60;4.10;;;4.20;99.90;;;;;;5111434;27;20091;-83
2023/01/27 01:08:26;;;;;;;10.02;4.10;;;4.20;99.90;;;;;;5109889;27;20099;-83
2023/01/27 01:10:53;;;;;;;7.15;3.95;;;4.70;99.90;;;;;;5111096;27;20039;-83
2023/01/27 01:13:20;;;;;;;13.10;4.03;;;4.20;99.90;;;;;;5109174;27;20114;-83
2023/01/27 01:15:46;;;;;;;8.63;4.30;;;4.20;99.90;;;;;;5077364;27;20047;-83
2023/01/27 01:18:12;;;;;;;11.63;4.50;;;4.20;99.90;;;;;;5093724;27;20051;-83
2023/01/27 01:20:43;;;;;;;7.82;3.28;;;4.20;99.90;;;;;;5109949;27;20091;-83
2023/01/27 01:23:10;;;;;;;4.70;2.78;;;4.20;99.90;;;;;;5093884;27;20054;-83
2023/01/27 01:25:36;;;;;;;5.28;3.33;;;5.30;99.90;;;;;;5092076;27;20545;-83
2023/01/27 01:28:03;;;;;;;9.32;3.47;;;4.20;99.90;;;;;;5111248;27;20081;-83
2023/01/27 01:30:29;;;;;;;6.38;3.90;;;4.20;99.90;;;;;;5092373;27;20043;-82
2023/01/27 01:32:56;;;;;;;7.95;3.35;;;5.10;99.90;;;;;;5076816;27;20551;-82
2023/01/27 01:35:26;;;;;;;8.38;3.60;;;4.70;99.90;;;;;;5093672;27;20469;-85
2023/01/27 01:37:53;;;;;;;5.95;2.92;;;4.20;99.90;;;;;;5091648;27;20134;-84
2023/01/27 01:40:20;;;;;;;6.63;2.95;;;4.50;99.90;;;;;;5093873;27;20549;-84
2023/01/27 01:42:49;;;;;;;7.00;2.70;;;4.20;99.90;;;;;;5108556;27;20063;-83
2023/01/27 01:45:36;;;;;;;5.85;2.50;;;4.20;99.90;;;;;;5094197;27;20046;-83
2023/01/27 01:48:10;;;;;;;7.63;2.78;;;5.30;99.90;;;;;;5093036;27;20043;-82
2023/01/27 01:50:39;;;;;;;8.68;2.45;;;4.20;99.90;;;;;;5092219;27;20055;-82
2023/01/27 01:53:07;;;;;;;5.25;2.53;;;4.20;99.90;;;;;;5110196;27;20043;-83
2023/01/27 01:55:35;;;;;;;3.90;2.45;;;4.20;99.90;;;;;;5108225;27;20042;-83
2023/01/27 01:58:01;;;;;;;6.57;2.30;;;4.20;99.90;;;;;;5093346;27;20059;-83
2023/01/27 02:00:27;;;;;;;8.82;1.90;;;4.20;99.90;;;;;;5091965;27;20410;-83
2023/01/27 02:02:53;;;;;;;6.78;2.08;;;4.20;99.90;;;;;;5093299;27;20482;-83
2023/01/27 02:05:40;;;;;;;5.03;1.75;;;4.30;99.90;;;;;;5092907;27;20506;-82
2023/01/27 02:08:10;;;;;;;5.53;2.03;;;5.60;99.90;;;;;;5091764;27;20043;-83
2023/01/27 02:10:36;;;;;;;5.97;1.50;;;4.30;99.90;;;;;;5110387;27;20443;-83
2023/01/27 02:13:02;;;;;;;2.08;1.08;;;4.30;99.90;;;;;;5108764;27;20526;-83
2023/01/27 02:15:31;;;;;;;5.53;0.93;;;4.30;99.90;;;;;;5076295;27;20402;-83
2023/01/27 02:17:59;;;;;;;3.47;0.93;;;4.20;99.90;;;;;;5059373;27;20043;-83
2023/01/27 02:20:41;;;;;;;5.53;2.17;;;4.30;99.90;;;;;;5108868;27;20066;-83
2023/01/27 02:23:34;;;;;;;3.90;1.88;;;4.30;99.90;;;;;;5092375;27;20070;-83
2023/01/27 02:26:06;;;;;;;4.13;0.55;;;4.30;99.90;;;;;;5090799;27;20051;-83
2023/01/27 02:28:32;;;;;;;1.77;0.80;;;4.30;99.90;;;;;;5092931;27;20092;-83
2023/01/27 02:30:58;;;;;;;2.25;0.90;;;4.30;99.90;;;;;;5092485;27;20035;-83
2023/01/27 02:33:24;;;;;;;2.88;0.88;;;4.90;99.90;;;;;;5108851;27;20102;-82
2023/01/27 02:36:12;;;;;;;4.60;1.20;;;4.90;99.90;;;;;;5092549;27;20050;-83
2023/01/27 02:38:45;;;;;;;6.78;1.10;;;4.30;99.90;;;;;;5107674;27;20545;-83
2023/01/27 02:41:38;;;;;;;4.22;0.70;;;5.20;99.90;;;;;;5109685;27;20031;-83
2023/01/27 02:44:04;;;;;;;5.20;0.90;;;4.30;99.90;;;;;;5109351;27;20414;-82
2023/01/27 02:46:30;;;;;;;4.22;1.00;;;3.70;99.90;;;;;;5108678;27;20382;-82
2023/01/27 02:48:56;;;;;;;5.90;0.90;;;4.80;99.90;;;;;;5108715;27;20039;-84
2023/01/27 02:51:22;;;;;;;1.00;0.60;;;4.30;99.90;;;;;;5073793;27;20043;-83
2023/01/27 02:53:48;;;;;;;3.33;1.00;;;4.30;99.90;;;;;;5109322;27;20045;-83
2023/01/27 02:56:14;;;;;;;1.75;0.50;;;4.30;99.90;;;;;;5107568;27;20051;-83
2023/01/27 02:58:39;;;;;;;7.95;0.57;;;4.70;99.90;;;;;;5109088;27;20043;-83
2023/01/27 03:01:05;;;;;;;2.50;0.70;;;5.00;99.90;;;;;;5074534;27;20039;-84
2023/01/27 03:03:31;;;;;;;1.77;0.50;;;4.20;99.90;;;;;;5090988;27;20039;-83
2023/01/27 03:05:57;;;;;;;5.88;0.98;;;4.20;99.90;;;;;;5091670;27;20043;-83
2023/01/27 03:08:22;;;;;;;1.38;0.57;;;5.50;99.90;;;;;;5125581;27;20086;-83
2023/01/27 03:10:55;;;;;;;2.53;0.60;;;4.40;99.90;;;;;;5058513;27;20537;-83
2023/01/27 03:13:24;;;;;;;4.57;0.65;;;5.30;99.90;;;;;;5090140;27;20051;-83
2023/01/27 03:18:35;;;;;;;2.10;0.63;;;4.20;99.90;;;;;;5108915;27;20422;-83
2023/01/27 03:21:04;;;;;;;4.15;0.73;;;4.20;99.90;;;;;;5073373;27;20390;-83
2023/01/27 03:23:33;;;;;;;3.22;0.60;;;4.20;99.90;;;;;;5109016;27;20125;-83
2023/01/27 03:26:00;;;;;;;6.35;1.20;;;4.30;99.90;;;;;;5073055;27;20188;-83
2023/01/27 03:28:26;;;;;;;5.63;0.82;;;4.20;99.90;;;;;;5127201;27;20039;-82
2023/01/27 03:31:01;;;;;;;4.18;0.68;;;4.20;99.90;;;;;;5073939;27;20425;-83
2023/01/27 03:33:27;;;;;;;3.78;0.63;;;5.20;99.90;;;;;;5107519;27;20126;-83
2023/01/27 03:46:52;;;;;;;3.05;0.57;;;4.50;99.90;;;;;;5092955;27;20062;-83
2023/01/27 03:49:18;;;;;;;3.50;0.60;;;4.10;99.90;;;;;;5091368;27;20130;-83
2023/01/27 03:51:43;;;;;;;3.25;0.70;;;4.70;99.90;;;;;;5108119;27;20068;-83
2023/01/27 03:54:09;;;;;;;8.13;0.88;;;4.10;99.90;;;;;;5111355;27;20049;-83
2023/01/27 03:56:35;;;;;;;3.60;0.73;;;4.30;99.90;;;;;;5117947;27;20111;-83
2023/01/27 03:59:00;;;;;;;11.05;1.00;;;4.00;99.90;;;;;;5084708;27;20262;-83
2023/01/27 04:01:26;;;;;;;2.28;0.60;;;4.00;99.90;;;;;;5100921;27;20047;-83
2023/01/27 04:06:59;;;;;;;2.63;0.70;;;4.00;99.90;;;;;;5108817;28;20058;-83
2023/01/27 04:09:32;;;;;;;1.05;0.40;;;4.00;99.90;;;;;;5090260;28;20091;-83
2023/01/27 04:11:59;;;;;;;;;;;4.00;99.90;;;;;;5108769;27;20393;-83
2023/01/27 04:14:32;;;;;;;1.27;0.38;;;3.90;99.90;;;;;;5107813;28;19923;-83
2023/01/27 04:17:04;;;;;;;1.35;0.60;;;3.90;99.90;;;;;;5106943;28;20121;-83
2023/01/27 04:19:30;;;;;;;5.25;0.98;;;3.90;99.90;;;;;;5108013;28;20048;-83
2023/01/27 04:21:57;;;;;;;3.42;0.82;;;4.90;99.90;;;;;;5089421;28;20047;-83
2023/01/27 04:24:23;;;;;;;1.50;0.70;;;3.90;99.90;;;;;;5107857;28;20395;-83
2023/01/27 04:27:00;;;;;;;2.30;0.60;;;4.00;99.90;;;;;;5090170;28;20188;-83
2023/01/27 04:29:28;;;;;;;2.70;0.68;;;4.00;99.90;;;;;;5106877;28;20047;-83
2023/01/27 04:31:54;;;;;;;3.38;0.73;;;4.70;99.90;;;;;;5107888;28;20397;-83
2023/01/27 04:34:20;;;;;;;4.75;0.70;;;3.90;99.90;;;;;;5105770;28;20043;-83
2023/01/27 04:36:46;;;;;;;3.47;0.80;;;3.90;99.90;;;;;;5108419;28;20046;-83
2023/01/27 04:39:13;;;;;;;3.70;0.98;;;3.90;99.90;;;;;;5106793;28;20047;-83
2023/01/27 04:41:38;;;;;;;3.53;1.02;;;5.20;99.90;;;;;;5107192;28;20039;-83
2023/01/27 04:44:05;;;;;;;6.47;0.88;;;4.50;99.90;;;;;;5107313;28;20047;-82
2023/01/27 04:46:32;;;;;;;4.13;0.90;;;3.90;99.90;;;;;;5089407;28;20054;-84
2023/01/27 04:48:58;;;;;;;4.85;0.88;;;3.90;99.90;;;;;;5107354;28;20092;-83
2023/01/27 04:51:23;;;;;;;5.05;0.65;;;3.90;99.90;;;;;;5090179;28;20039;-83
2023/01/27 04:53:49;;;;;;;2.45;0.93;;;3.90;99.90;;;;;;5074173;28;20035;-83
2023/01/27 04:56:36;;;;;;;2.10;0.60;;;4.80;99.90;;;;;;5089416;28;20057;-84
2023/01/27 04:59:05;;;;;;;2.17;0.70;;;4.80;99.90;;;;;;5107065;28;20071;-83
2023/01/27 05:01:30;;;;;;;3.72;0.75;;;4.90;99.90;;;;;;5090631;28;20075;-83
2023/01/27 05:03:56;;;;;;;4.13;0.98;;;4.60;99.90;;;;;;5089288;28;20083;-83
2023/01/27 05:06:23;;;;;;;4.20;1.10;;;5.00;99.90;;;;;;5107770;28;20049;-84
2023/01/27 05:08:49;;;;;;;4.38;1.20;;;5.30;99.90;;;;;;5088752;28;20039;-84
2023/01/27 05:11:15;;;;;;;2.83;0.93;;;3.90;99.90;;;;;;5092284;28;20122;-84
2023/01/27 05:13:41;;;;;;;8.55;1.17;;;5.10;99.90;;;;;;5093635;27;20046;-84
2023/01/27 05:16:17;;;;;;;3.42;0.93;;;3.90;99.90;;;;;;5077996;27;20525;-84
2023/01/27 05:18:44;;;;;;;5.32;0.90;;;3.90;99.90;;;;;;5111702;27;20035;-84
2023/01/27 05:21:13;;;;;;;5.55;1.00;;;3.90;99.90;;;;;;5110110;27;20482;-84
2023/01/27 05:23:39;;;;;;;10.07;1.00;;;3.90;99.90;;;;;;5111897;27;20035;-84
2023/01/27 05:26:14;;;;;;;8.48;0.85;;;4.40;99.90;;;;;;5076201;27;20054;-85
2023/01/27 05:28:45;;;;;;;4.32;0.85;;;3.90;99.90;;;;;;5111934;27;20078;-84
2023/01/27 05:31:22;;;;;;;2.88;0.80;;;3.90;99.90;;;;;;5111177;27;20385;-84
2023/01/27 05:33:51;;;;;;;6.40;0.90;;;5.10;99.90;;;;;;5109812;27;20047;-84
2023/01/27 05:36:18;;;;;;;4.30;0.82;;;3.90;99.90;;;;;;5094348;27;20398;-85
2023/01/27 05:38:45;;;;;;;4.65;0.55;;;5.10;99.90;;;;;;5092572;27;20043;-85
2023/01/27 05:41:12;;;;;;;4.85;0.93;;;4.50;99.90;;;;;;5094421;27;20058;-85
2023/01/27 05:43:40;;;;;;;4.72;0.80;;;4.30;99.90;;;;;;5109755;27;20039;-85
2023/01/27 05:46:08;;;;;;;2.10;0.60;;;3.90;99.90;;;;;;5076667;27;20107;-85
2023/01/27 05:48:36;;;;;;;2.80;1.27;;;4.90;99.90;;;;;;5110120;27;20054;-84
2023/01/27 05:51:01;;;;;;;4.13;0.98;;;3.90;99.90;;;;;;5092135;27;20043;-84
2023/01/27 05:53:27;;;;;;;1.65;0.82;;;3.90;99.90;;;;;;5110304;27;20145;-84
2023/01/27 05:55:53;;;;;;;3.80;0.70;;;3.90;99.90;;;;;;5091506;27;20046;-84
2023/01/27 05:58:20;;;;;;;2.03;0.40;;;5.00;99.90;;;;;;5110804;27;20046;-84
2023/01/27 06:00:46;;;;;;;1.58;0.60;;;4.60;99.90;;;;;;5075235;27;20089;-87
2023/01/27 06:03:12;;;;;;;2.88;0.63;;;3.90;99.90;;;;;;5128541;27;20066;-83
2023/01/27 06:05:38;;;;;;;2.45;0.63;;;3.80;99.90;;;;;;5076697;27;20100;-85
2023/01/27 06:08:04;;;;;;;1.08;0.70;;;3.90;99.90;;;;;;5108502;27;20039;-83
2023/01/27 06:10:30;;;;;;;6.03;0.57;;;3.80;99.90;;;;;;5093235;27;20086;-84
2023/01/27 06:12:59;;;;;;;2.50;0.80;;;4.10;99.90;;;;;;5108348;27;20051;-84
2023/01/27 06:15:25;;;;;;;2.45;0.68;;;3.70;99.90;;;;;;5110781;27;20043;-84
2023/01/27 06:17:50;;;;;;;1.10;0.55;;;3.60;99.90;;;;;;5109226;27;20043;-81
2023/01/27 06:20:16;;;;;;;4.80;0.63;;;3.60;99.90;;;;;;5092413;27;20054;-82
2023/01/27 06:22:42;;;;;;;5.93;0.90;;;3.60;99.90;;;;;;5092573;27;20046;-81
2023/01/27 06:25:08;;;;;;;3.10;0.65;;;3.80;99.90;;;;;;5108261;27;20053;-85
2023/01/27 06:27:34;;;;;;;3.00;0.57;;;3.50;99.90;;;;;;5109685;27;20122;-85
2023/01/27 06:29:59;;;;;;;1.88;0.77;;;3.50;99.90;;;;;;5108094;27;20043;-84
2023/01/27 06:32:28;;;;;;;3.28;0.70;;;3.50;99.90;;;;;;5128054;27;20486;-81
2023/01/27 06:34:54;;;;;;;1.15;0.60;;;3.40;99.90;;;;;;5091174;27;20045;-83
2023/01/27 06:37:19;;;;;;;2.17;0.77;;;3.60;99.90;;;;;;5110027;27;20047;-86
2023/01/27 06:39:45;;;;;;;2.50;0.82;;;3.40;99.90;;;;;;5058290;27;20046;-86
2023/01/27 06:42:12;;;;;;;0.93;0.57;;;3.40;99.90;;;;;;5091705;27;20506;-83
2023/01/27 06:44:38;;;;;;;2.97;0.57;;;3.40;99.90;;;;;;5075935;27;20039;-85
2023/01/27 06:47:03;;;;;;;2.75;0.63;;;3.40;99.90;;;;;;5091395;27;20054;-82
2023/01/27 06:49:29;;;;;;;0.88;0.50;;;3.50;99.90;;;;;;5109609;27;20507;-82
2023/01/27 06:51:55;;;;;;;3.53;0.80;;;3.40;99.90;;;;;;5090420;27;20108;-81
2023/01/27 06:54:20;;;;;;;4.00;1.27;;;3.50;99.90;;;;;;5109646;27;20092;-83
2023/01/27 06:56:46;;;;;;;0.70;0.40;;;3.40;99.90;;;;;;5127585;27;20045;-80
2023/01/27 06:59:12;;;;;;;2.20;0.70;;;3.40;99.90;;;;;;5127315;27;20561;-80
2023/01/27 07:01:37;;;;;;;2.83;0.90;;;3.40;99.90;;;;;;5108884;27;20043;-80
2023/01/27 07:04:03;;;;;;;2.15;0.73;;;3.80;99.90;;;;;;5090941;27;20039;-83
2023/01/27 07:06:29;;;;;;;2.95;0.60;;;3.40;99.90;;;;;;5092227;27;20505;-82
2023/01/27 07:08:54;;;;;;;1.70;0.50;;;3.40;99.90;;;;;;5107507;27;20630;-83
2023/01/27 07:11:21;;;;;;;7.05;0.80;;;3.40;99.90;;;;;;5093999;27;20088;-83
2023/01/27 07:13:47;;;;;;;4.55;0.60;;;3.40;99.90;;;;;;5094913;27;20046;-82
2023/01/27 07:16:13;;;;;;;2.78;0.70;;;3.40;99.90;;;;;;5132932;27;20039;-82
2023/01/27 07:18:39;;;;;;;2.33;0.70;;;3.40;99.90;;;;;;5095151;27;20059;-82
2023/01/27 07:21:05;;;;;;;3.08;0.70;;;4.10;99.90;;;;;;5094035;27;20197;-79
2023/01/27 07:23:30;;;;;;;4.30;0.55;;;3.30;99.90;;;;;;5111379;27;20043;-80
2023/01/27 07:25:56;;;;;;;3.20;0.55;;;3.90;99.90;;;;;;5109743;27;20054;-80
2023/01/27 07:28:22;;;;;;;4.35;1.70;;;3.40;99.90;;;;;;5109251;27;20451;-80
2023/01/27 07:30:47;;;;;;;5.20;1.10;;;4.70;99.90;;;;;;5073353;27;20153;-80
2023/01/27 07:33:14;;;;;;;2.70;0.70;;;4.30;99.90;;;;;;5108538;27;20042;-80
2023/01/27 07:35:41;;;;;;;3.88;0.50;;;3.40;99.90;;;;;;5107170;28;20101;-80
2023/01/27 07:38:08;;;;;;;3.42;0.52;;;3.40;99.90;;;;;;5090739;27;20070;-80
2023/01/27 07:40:34;;;;;;;3.75;1.48;;;4.10;99.90;;;;;;5091282;27;20062;-80
2023/01/27 07:43:01;;;;;;;5.68;0.95;;;3.50;99.90;;;;;;5072510;27;20042;-83
2023/01/27 07:45:27;;;;;;;4.80;1.30;;;4.70;99.90;;;;;;5108478;27;20386;-82
2023/01/27 07:47:59;;;;;;;7.47;1.20;;;3.50;99.90;;;;;;5106359;27;20409;-83
2023/01/27 07:50:24;;;;;;;2.83;0.60;;;3.50;99.90;;;;;;5125954;27;20035;-80
2023/01/27 07:52:50;;;;;;;2.53;0.52;;;3.50;99.90;;;;;;5073782;27;20070;-81
2023/01/27 07:55:16;;;;;;;1.35;0.55;;;4.80;99.90;;;;;;5073181;27;20046;-83
2023/01/27 07:57:42;;;;;;;2.80;1.00;;;3.60;99.90;;;;;;5057608;27;20043;-82
2023/01/27 08:00:09;;;;;;;6.53;0.77;;;3.60;99.90;;;;;;5073192;27;20126;-83
2023/01/27 08:02:34;;;;;;;8.98;1.08;;;3.60;99.90;;;;;;5108080;27;20035;-82
2023/01/27 08:05:00;;;;;;;5.78;0.90;;;3.60;99.90;;;;;;5089022;27;20058;-82
2023/01/27 08:07:26;;;;;;;8.30;1.25;;;4.50;99.90;;;;;;5073953;28;20050;-82
2023/01/27 08:09:53;;;;;;;7.00;1.85;;;3.70;99.90;;;;;;5089817;27;20043;-82
2023/01/27 08:12:19;;;;;;;3.40;0.80;;;3.70;99.90;;;;;;5106446;27;20095;-82
2023/01/27 08:14:45;;;;;;;8.55;1.00;;;4.90;99.90;;;;;;5073517;27;20051;-83
2023/01/27 08:17:10;;;;;;;2.33;1.10;;;3.70;99.90;;;;;;5072410;28;20074;-82
2023/01/27 08:19:36;;;;;;;6.82;0.98;;;3.80;99.90;;;;;;5074019;28;20105;-85
2023/01/27 08:22:02;;;;;;;8.23;1.50;;;3.80;99.90;;;;;;5055473;27;20324;-82
2023/01/27 08:24:28;;;;;;;5.75;0.93;;;3.80;99.90;;;;;;5073752;28;20049;-83
2023/01/27 08:26:54;;;;;;;3.22;0.95;;;3.90;99.90;;;;;;5089552;28;20043;-83
2023/01/27 08:29:19;;;;;;;4.80;0.95;;;3.80;99.90;;;;;;5089850;28;20092;-83
2023/01/27 08:31:45;;;;;;;9.57;0.88;;;4.70;99.90;;;;;;5090566;28;20039;-83
2023/01/27 08:34:11;;;;;;;3.63;0.95;;;4.00;99.90;;;;;;5072298;28;20439;-83
2023/01/27 08:36:41;;;;;;;8.35;1.00;;;4.60;99.90;;;;;;5090208;28;20055;-83
2023/01/27 08:39:08;;;;;;;5.43;0.70;;;3.90;99.90;;;;;;5105689;28;20513;-82
2023/01/27 08:41:34;;;;;;;4.55;1.33;;;3.90;99.90;;;;;;5107159;28;20564;-83
2023/01/27 08:43:59;;;;;;;6.10;1.27;;;3.90;99.90;;;;;;5089359;28;20071;-83
2023/01/27 08:46:25;;;;;;;7.25;1.23;;;4.00;99.90;;;;;;5106757;28;20078;-80
2023/01/27 08:48:52;;;;;;;3.40;0.68;;;4.40;99.90;;;;;;5077211;27;20035;-80
2023/01/27 08:51:18;;;;;;;2.70;1.23;;;4.00;99.90;;;;;;5110145;27;20039;-81
2023/01/27 08:53:43;;;;;;;4.57;1.10;;;4.00;99.90;;;;;;5094673;27;20126;-81
2023/01/27 08:56:14;;;;;;;4.60;1.10;;;4.10;99.90;;;;;;5092534;27;20031;-82
2023/01/27 08:58:41;;;;;;;6.20;1.02;;;4.10;99.90;;;;;;5094071;27;20082;-83
2023/01/27 09:01:07;;;;;;;4.22;0.65;;;5.20;99.90;;;;;;5110601;27;20126;-82
2023/01/27 09:03:34;;;;;;;7.30;2.55;;;4.20;99.90;;;;;;5093393;27;20047;-82
2023/01/27 09:06:01;;;;;;;3.45;0.80;;;4.20;99.90;;;;;;5093511;27;20039;-81
2023/01/27 09:08:27;;;;;;;3.67;1.30;;;4.20;99.90;;;;;;5093179;27;20104;-81
2023/01/27 09:10:53;;;;;;;4.38;1.13;;;4.20;99.90;;;;;;5094242;27;20051;-82
2023/01/27 09:13:21;;;;;;;7.63;1.48;;;4.20;99.90;;;;;;5075224;27;20053;-81
2023/01/27 09:15:49;;;;;;;8.50;1.00;;;4.30;99.90;;;;;;5094376;27;20083;-82
2023/01/27 09:18:15;;;;;;;3.42;1.17;;;4.70;99.90;;;;;;5109539;27;20031;-81
2023/01/27 09:20:40;;;;;;;7.05;1.02;;;4.30;99.90;;;;;;5076288;27;20122;-81
2023/01/27 09:23:06;;;;;;;9.07;1.25;;;4.70;99.90;;;;;;5093181;27;20439;-81
2023/01/27 09:25:32;;;;;;;4.82;1.10;;;4.40;99.90;;;;;;5075291;27;20256;-81
2023/01/27 09:27:59;;;;;;;2.95;1.55;;;4.50;99.90;;;;;;5110414;27;20208;-82
2023/01/27 09:30:26;;;;;;;6.47;0.82;;;5.00;99.90;;;;;;5091839;27;20067;-81
2023/01/27 09:32:52;;;;;;;3.53;1.10;;;5.70;99.90;;;;;;5110715;27;20054;-81
2023/01/27 09:35:18;;;;;;;6.95;1.20;;;4.60;99.90;;;;;;5109080;27;20043;-82
2023/01/27 09:38:05;;;;;;;6.07;1.42;;;5.60;99.90;;;;;;5110646;27;20457;-82
2023/01/27 09:40:55;;;;;;;13.38;1.38;;;4.60;99.90;;;;;;5110197;27;20039;-82
2023/01/27 09:43:39;;;;;;;4.28;1.33;;;4.70;99.90;;;;;;5081969;27;20047;-81
2023/01/27 09:46:31;;;;;;;4.78;1.02;;;4.70;99.90;;;;;;5110681;27;20429;-81
2023/01/27 09:49:22;;;;;;;6.15;2.13;;;4.80;99.90;;;;;;5104929;27;20099;-81
2023/01/27 09:52:23;;;;;;;4.00;0.63;;;4.80;99.90;;;;;;5108406;27;20043;-82
2023/01/27 09:55:10;;;;;;;2.67;0.82;;;4.90;99.90;;;;;;5092471;27;20051;-81
2023/01/27 09:57:54;;;;;;;6.45;1.00;;;5.00;99.90;;;;;;5109741;27;20051;-82
2023/01/27 10:00:40;;;;;;;2.13;0.90;;;5.00;99.90;;;;;;5091256;27;20486;-81
2023/01/27 10:03:22;;;;;;;3.28;0.75;;;5.10;99.90;;;;;;5109768;27;20044;-82
2023/01/27 10:06:06;;;;;;;3.45;0.70;;;5.10;99.90;;;;;;5092746;27;20409;-82
2023/01/27 10:08:50;;;;;;;3.80;0.90;;;5.10;99.90;;;;;;5108730;27;20043;-81
2023/01/27 10:11:27;;;;;;;6.50;0.93;;;5.10;99.90;;;;;;5109773;27;20338;-82
2023/01/27 10:14:10;;;;;;;1.42;0.40;;;5.10;99.90;;;;;;5108760;27;20414;-82
2023/01/27 10:17:08;;;;;;;3.85;0.80;;;5.00;99.90;;;;;;5109782;27;20069;-81
2023/01/27 10:19:42;;;;;;;3.42;1.17;;;5.00;99.90;;;;;;5109933;27;20050;-81
2023/01/27 10:22:32;;;;;;;2.08;0.45;;;5.00;99.90;;;;;;5107840;27;20155;-81
2023/01/27 10:25:16;;;;;;;2.70;0.50;;;5.00;99.90;;;;;;5110289;27;20471;-81
2023/01/27 10:27:47;;;;;;;1.85;0.40;;;5.00;99.90;;;;;;5128331;27;20038;-81
2023/01/27 10:30:34;;;;;;;1.75;0.30;;;5.40;99.90;;;;;;5108704;27;20039;-81
2023/01/27 10:33:20;;;;;;;5.15;0.50;;;5.00;99.90;;;;;;5110265;27;20451;-81
2023/01/27 10:35:58;;;;;;;1.40;0.60;;;5.00;99.90;;;;;;5127830;27;20058;-81
2023/01/27 10:38:53;;;;;;;3.53;0.50;;;5.00;99.90;;;;;;5092875;27;20043;-81
2023/01/27 10:41:22;;;;;;;2.70;0.70;;;5.00;99.90;;;;;;5131657;27;20086;-81
2023/01/27 10:43:59;;;;;;;3.20;0.95;;;5.00;99.90;;;;;;5129970;27;20083;-82
2023/01/27 10:46:50;;;;;;;3.70;0.93;;;5.00;99.90;;;;;;5110830;27;20035;-81
2023/01/27 10:49:35;;;;;;;3.45;0.70;;;5.00;99.90;;;;;;5109700;27;20097;-81
2023/01/27 10:52:09;;;;;;;0.60;0.50;;;5.00;99.90;;;;;;5107632;27;20043;-82
2023/01/27 10:55:01;;;;;;;5.07;0.80;;;4.90;99.90;;;;;;5092244;27;20035;-82
2023/01/27 10:57:34;;;;;;;3.17;0.88;;;4.90;99.90;;;;;;5108538;27;20494;-81
2023/01/27 11:00:26;;;;;;;5.78;1.23;;;4.90;99.90;;;;;;5107572;27;20051;-81
2023/01/27 11:03:10;;;;;;;2.90;1.23;;;4.80;99.90;;;;;;5104093;27;20047;-81
2023/01/27 11:05:48;;;;;;;7.45;1.48;;;5.20;99.90;;;;;;5091115;27;20107;-83
2023/01/27 11:08:34;;;;;;;1.70;1.00;;;4.70;99.90;;;;;;5089520;27;20110;-82
2023/01/27 11:13:51;;;;;;;14.85;6.20;;;4.60;99.90;;;;;;5106886;27;20138;-84
2023/01/27 11:16:19;;;;;;;2.95;1.75;;;4.50;99.90;;;;;;5108491;27;20469;-82
2023/01/27 11:18:48;;;;;;;2.28;1.67;;;4.60;99.90;;;;;;5090579;27;20046;-82
2023/01/27 11:21:23;;;;;;;1.77;1.10;;;4.50;99.90;;;;;;5087035;28;20062;-83
2023/01/27 11:23:55;;;;;;;1.30;1.10;;;4.10;99.90;;;;;;5087247;28;20070;-82
2023/01/27 11:26:38;;;;;;;1.42;1.10;;;4.50;99.90;;;;;;5086360;28;20878;-82
2023/01/27 11:29:16;;;;;;;1.25;1.08;;;5.50;99.90;;;;;;5104844;28;20058;-82
2023/01/27 11:31:51;;;;;;;2.00;1.48;;;4.40;99.90;;;;;;5087490;28;20711;-83
2023/01/27 11:34:32;;;;;;;1.55;1.30;;;4.50;99.90;;;;;;5087670;28;20043;-82
2023/01/27 11:36:59;;;;;;;3.38;1.73;;;4.50;99.90;;;;;;5087959;28;20463;-82
2023/01/27 11:39:29;;;;;;;6.07;1.58;;;4.50;99.90;;;;;;5086877;28;20036;-81
2023/01/27 11:41:55;;;;;;;2.78;1.92;;;4.80;99.90;;;;;;5088148;28;20118;-83
2023/01/27 11:44:29;;;;;;;2.78;1.70;;;4.40;99.90;;;;;;5085448;28;20043;-82
2023/01/27 11:46:55;;;;;;;2.22;1.83;;;4.00;99.90;;;;;;5104661;28;20044;-81
2023/01/27 11:49:29;;;;;;;4.07;2.17;;;4.40;99.90;;;;;;5086661;28;20253;-82
2023/01/27 11:52:04;;;;;;;3.90;2.05;;;4.40;99.90;;;;;;5103593;28;20367;-84
2023/01/27 11:54:39;;;;;;;2.60;1.80;;;4.40;99.90;;;;;;5087658;28;20032;-80
2023/01/27 11:57:16;;;;;;;1.83;1.73;;;4.40;99.90;;;;;;5102232;28;20048;-80
2023/01/27 11:59:42;;;;;;;2.10;1.73;;;5.10;99.90;;;;;;5087003;28;20040;-80
2023/01/27 12:02:08;;;;;;;2.22;1.90;;;4.40;99.90;;;;;;5102717;28;20629;-81
2023/01/27 12:04:50;;;;;;;1.95;1.75;;;4.40;99.90;;;;;;5103307;28;20127;-82
2023/01/27 12:07:34;;;;;;;1.87;1.33;;;4.40;99.90;;;;;;5104007;28;20498;-82
2023/01/27 12:10:00;;;;;;;2.30;1.80;;;4.40;99.90;;;;;;5102121;28;20048;-82
2023/01/27 12:12:26;;;;;;;2.63;1.75;;;4.40;99.90;;;;;;5104507;28;20082;-81
2023/01/27 12:14:55;;;;;;;2.47;1.80;;;4.30;99.90;;;;;;5086088;28;20047;-81
2023/01/27 12:17:37;;;;;;;2.92;2.08;;;4.30;99.90;;;;;;5103356;28;20483;-81
2023/01/27 12:20:46;;;;;;;5.65;3.08;;;4.30;99.90;;;;;;5111089;27;20043;-81
2023/01/27 12:23:38;;;;;;;2.50;2.17;;;4.30;99.90;;;;;;5104447;28;20047;-81
2023/01/27 12:26:07;;;;;;;2.33;2.10;;;4.30;99.90;;;;;;5106586;28;20524;-82
2023/01/27 12:28:50;;;;;;;1.65;1.48;;;4.30;99.90;;;;;;5107590;28;20043;-84
2023/01/27 12:31:19;;;;;;;3.38;2.42;;;4.30;99.90;;;;;;5105201;28;20047;-82
2023/01/27 12:34:00;;;;;;;2.22;1.98;;;4.30;99.90;;;;;;5107104;28;20051;-82
2023/01/27 12:36:27;;;;;;;3.95;1.95;;;4.10;99.90;;;;;;5124893;28;20598;-81
2023/01/27 12:38:57;;;;;;;3.35;1.75;;;4.30;99.90;;;;;;5089826;28;20050;-80
2023/01/27 12:41:31;;;;;;;2.85;1.83;;;5.30;99.90;;;;;;5107214;28;20053;-81
2023/01/27 12:44:07;;;;;;;2.60;1.55;;;4.30;99.90;;;;;;5105841;28;20047;-80
2023/01/27 12:46:33;;;;;;;2.53;1.73;;;4.30;99.90;;;;;;5107351;28;20074;-81
2023/01/27 12:49:08;;;;;;;3.88;2.00;;;4.30;99.90;;;;;;5105501;28;20085;-79
2023/01/27 12:51:40;;;;;;;2.88;1.83;;;5.20;99.90;;;;;;5107114;28;20126;-79
2023/01/27 12:54:22;;;;;;;3.10;1.63;;;4.30;99.90;;;;;;5106492;28;20043;-79
2023/01/27 12:56:50;;;;;;;3.42;2.13;;;4.30;99.90;;;;;;5124034;28;20130;-79
2023/01/27 12:59:20;;;;;;;5.18;2.35;;;4.40;99.90;;;;;;5125699;28;20050;-79
2023/01/27 13:02:35;;;;;;;2.45;1.80;;;4.20;99.90;;;;;;5105874;28;20055;-79
2023/01/27 13:05:04;;;;;;;1.83;1.40;;;4.20;99.90;;;;;;5084860;28;20506;-79
2023/01/27 13:07:38;;;;;;;2.45;1.27;;;4.20;99.90;;;;;;5089987;28;20039;-79
2023/01/27 13:10:14;;;;;;;1.33;1.00;;;4.20;99.90;;;;;;5106200;28;20394;-80
2023/01/27 13:12:51;;;;;;;1.63;1.30;;;4.30;99.90;;;;;;5125520;28;20039;-79
2023/01/27 13:15:27;;;;;;;2.20;1.30;;;4.30;99.90;;;;;;5106259;28;20131;-79
2023/01/27 13:17:54;;;;;;;1.83;0.98;;;4.30;99.90;;;;;;5124676;28;20050;-79
2023/01/27 13:20:30;;;;;;;2.35;0.93;;;4.90;99.90;;;;;;5106439;28;20047;-79
2023/01/27 13:23:06;;;;;;;4.38;1.30;;;4.40;99.90;;;;;;5104724;28;20066;-79
2023/01/27 13:25:51;;;;;;;2.80;1.30;;;4.40;99.90;;;;;;5106690;28;20494;-79
2023/01/27 13:28:35;;;;;;;1.70;1.40;;;4.40;99.90;;;;;;5124301;28;20426;-79
2023/01/27 13:31:07;;;;;;;2.83;1.85;;;4.40;99.90;;;;;;5124077;28;20055;-80
2023/01/27 13:33:50;;;;;;;1.42;1.30;;;3.50;99.90;;;;;;5090069;28;20043;-81
2023/01/27 13:36:25;;;;;;;2.10;1.80;;;4.40;99.90;;;;;;5108890;27;20470;-80
2023/01/27 13:39:01;;;;;;;1.92;1.60;;;4.30;99.90;;;;;;5110140;27;20043;-81
2023/01/27 13:42:04;;;;;;;1.67;1.42;;;4.40;99.90;;;;;;5109727;27;20660;-81
2023/01/27 13:44:33;;;;;;;2.75;0.90;;;4.40;99.90;;;;;;5126680;27;20046;-81